Main page
METAR-TAF:

METAR-TAF

Airports :

Winner Regional Airport

Winner, South Dakota, United States

latitude: 43-23-26N, longitude: 099-50-33W, elevation: 2030 ft

Current weather observation

The report was made 24 minutes ago, at 12:53 UTC
Wind 14 mph from the Northwest
Temperature 61°F
Humidity 77%
Pressure 30.16 in. Hg
Visibility: 10 miles
Clear sky

METAR: KICR 281253Z AUTO 32012KT 10SM CLR 16/12 A3016 RMK AO2 SLP205 T01560122

Time: 08:17 (13:17 UTC)


TAF: missing

Weather observations and forecasts of more than 4000 airports (METAR and TAF reports).

The available stations are represented by yellow and red dots on the map.

Hover mouse over dot to see the name of the station.

Then click to see weather observations and forecasts.

To change the map : click on the green buttons with a black cross to zoom in, on the green button with a dash to zoom out, or on the green arrows for adjacent maps.


METAR-TAF: